createdAt,value
2018-02-10T00:00:31.531Z,81.36
2018-02-10T00:01:31.443Z,81.45
2018-02-10T00:02:31.357Z,81.26
2018-02-10T00:03:31.274Z,81.36
2018-02-10T00:04:31.184Z,81.40
2018-02-10T00:05:31.097Z,81.55
2018-02-10T00:06:31.012Z,81.26
2018-02-10T00:07:30.926Z,81.40
2018-02-10T00:08:30.847Z,81.49
2018-02-10T00:09:30.800Z,81.40
2018-02-10T00:10:30.664Z,81.68
2018-02-10T00:11:30.579Z,80.74
2018-02-10T00:12:30.494Z,81.12
2018-02-10T00:13:30.407Z,80.64
2018-02-10T00:14:30.321Z,80.83
2018-02-10T00:15:30.236Z,80.36
2018-02-10T00:16:30.148Z,81.12
2018-02-10T00:17:30.059Z,81.21
2018-02-10T00:18:29.974Z,81.12
2018-02-10T00:19:29.890Z,81.40
2018-02-10T00:20:29.803Z,81.68
2018-02-10T00:21:29.718Z,81.59
2018-02-10T00:22:29.635Z,81.21
2018-02-10T00:23:29.545Z,81.68
2018-02-10T00:24:29.459Z,80.83
2018-02-10T00:25:29.371Z,80.74
2018-02-10T00:26:29.285Z,80.55
2018-02-10T00:27:29.198Z,80.83
2018-02-10T00:28:29.112Z,80.55
2018-02-10T00:29:29.026Z,80.36
2018-02-10T00:30:28.940Z,80.83
2018-02-10T00:31:28.860Z,80.45
2018-02-10T00:32:28.766Z,81.12
2018-02-10T00:33:28.683Z,81.12
2018-02-10T00:34:28.595Z,80.64
2018-02-10T00:35:28.508Z,80.36
2018-02-10T00:36:28.422Z,80.83
2018-02-10T00:37:28.336Z,80.36
2018-02-10T00:38:28.248Z,81.21
2018-02-10T00:39:28.163Z,80.55
2018-02-10T00:40:28.080Z,80.55
2018-02-10T00:41:27.989Z,80.26
2018-02-10T00:42:27.905Z,80.74
2018-02-10T00:43:27.821Z,80.83
2018-02-10T00:44:27.732Z,80.74
2018-02-10T00:45:27.647Z,81.02
2018-02-10T00:46:27.558Z,80.74
2018-02-10T00:47:27.475Z,80.55
2018-02-10T00:48:27.389Z,80.26
2018-02-10T00:49:27.300Z,80.55
2018-02-10T00:50:27.214Z,80.36
2018-02-10T00:51:27.129Z,80.36
2018-02-10T00:52:27.043Z,80.26
2018-02-10T00:53:26.955Z,80.64
2018-02-10T00:54:26.868Z,80.74
2018-02-10T00:55:26.783Z,80.74
2018-02-10T00:56:26.698Z,80.17
2018-02-10T00:57:26.611Z,80.69
2018-02-10T00:58:26.523Z,80.55
2018-02-10T00:59:26.439Z,80.64
2018-02-10T01:00:26.354Z,81.21
2018-02-10T01:01:26.265Z,81.12
2018-02-10T01:02:26.179Z,81.02
2018-02-10T01:03:26.093Z,81.12
2018-02-10T01:04:26.007Z,81.02
2018-02-10T01:05:25.975Z,81.12
2018-02-10T01:06:25.834Z,81.21
2018-02-10T01:07:25.748Z,80.74
2018-02-10T01:08:25.663Z,80.55
2018-02-10T01:09:25.576Z,80.36
2018-02-10T01:10:25.492Z,81.02
2018-02-10T01:11:25.401Z,80.64
2018-02-10T01:12:25.322Z,80.17
2018-02-10T01:13:25.229Z,80.36
2018-02-10T01:14:25.142Z,80.74
2018-02-10T01:15:25.055Z,80.55
2018-02-10T01:16:24.969Z,79.98
2018-02-10T01:17:24.883Z,80.55
2018-02-10T01:18:24.800Z,80.45
2018-02-10T01:19:24.717Z,80.93
2018-02-10T01:20:24.636Z,80.36
2018-02-10T01:21:24.538Z,80.93
2018-02-10T01:22:24.454Z,80.64
2018-02-10T01:23:24.369Z,80.36
2018-02-10T01:24:24.282Z,80.64
2018-02-10T01:25:24.193Z,80.55
2018-02-10T01:26:24.106Z,80.55
2018-02-10T01:27:24.021Z,80.17
2018-02-10T01:28:23.936Z,80.55
2018-02-10T01:29:23.851Z,80.55
2018-02-10T01:30:23.762Z,80.55
2018-02-10T01:31:23.690Z,80.64
2018-02-10T01:32:23.599Z,80.83
2018-02-10T01:33:23.505Z,80.74
2018-02-10T01:34:23.416Z,80.45
2018-02-10T01:35:23.331Z,80.64
2018-02-10T01:36:23.247Z,80.64
2018-02-10T01:37:23.157Z,80.07
2018-02-10T01:38:23.074Z,79.88
2018-02-10T01:39:22.985Z,80.17
2018-02-10T01:40:22.901Z,80.64
2018-02-10T01:41:22.816Z,80.17
2018-02-10T01:42:22.729Z,80.64
2018-02-10T01:43:22.641Z,80.45
2018-02-10T01:44:22.561Z,80.55
2018-02-10T01:45:22.471Z,80.55
2018-02-10T01:46:22.380Z,80.55
2018-02-10T01:47:22.295Z,80.93
2018-02-10T01:48:22.209Z,80.36
2018-02-10T01:49:22.125Z,80.55
2018-02-10T01:50:22.055Z,80.64
2018-02-10T01:51:21.951Z,80.55
2018-02-10T01:52:21.865Z,80.64
2018-02-10T01:53:21.781Z,80.51
2018-02-10T01:54:21.706Z,80.64
2018-02-10T01:55:21.606Z,80.45
2018-02-10T01:56:21.522Z,80.55
2018-02-10T01:57:21.433Z,81.12
2018-02-10T01:58:21.347Z,80.93
2018-02-10T01:59:21.260Z,80.32
2018-02-10T02:00:21.174Z,80.36
2018-02-10T02:01:21.087Z,81.02
2018-02-10T02:02:21.000Z,80.79
2018-02-10T02:03:20.914Z,80.98
2018-02-10T02:04:20.829Z,80.98
2018-02-10T02:05:20.742Z,80.32
2018-02-10T02:06:20.656Z,80.55
2018-02-10T02:07:20.569Z,80.79
2018-02-10T02:08:20.539Z,81.07
2018-02-10T02:09:20.396Z,81.02
2018-02-10T02:10:20.309Z,80.98
2018-02-10T02:11:20.225Z,81.02
2018-02-10T02:12:20.138Z,81.17
2018-02-10T02:13:20.053Z,81.55
2018-02-10T02:14:19.966Z,80.74
2018-02-10T02:15:19.880Z,80.93
2018-02-10T02:16:19.792Z,80.83
2018-02-10T02:17:19.707Z,80.88
2018-02-10T02:18:19.620Z,81.68
2018-02-10T02:19:19.535Z,81.59
2018-02-10T02:20:19.451Z,81.40
2018-02-10T02:21:19.363Z,81.59
2018-02-10T02:22:19.278Z,81.40
2018-02-10T02:23:19.245Z,81.59
2018-02-10T02:24:19.103Z,81.21
2018-02-10T02:25:19.020Z,81.21
2018-02-10T02:26:18.930Z,81.21
2018-02-10T02:27:18.846Z,81.02
2018-02-10T02:28:18.757Z,81.59
2018-02-10T02:29:18.671Z,81.49
2018-02-10T02:30:18.583Z,81.30
2018-02-10T02:31:18.499Z,81.40
2018-02-10T02:32:18.411Z,81.68
2018-02-10T02:33:18.326Z,81.49
2018-02-10T02:34:18.239Z,81.40
2018-02-10T02:35:18.154Z,81.21
2018-02-10T02:36:18.068Z,81.59
2018-02-10T02:37:17.980Z,81.12
2018-02-10T02:38:17.894Z,80.93
2018-02-10T02:39:17.811Z,81.68
2018-02-10T02:40:17.724Z,81.30
2018-02-10T02:41:17.637Z,81.40
2018-02-10T02:42:17.551Z,80.83
2018-02-10T02:43:17.464Z,81.02
2018-02-10T02:44:17.378Z,81.49
2018-02-10T02:45:17.294Z,81.40
2018-02-10T02:46:17.205Z,81.30
2018-02-10T02:47:17.135Z,81.49
2018-02-10T02:48:17.034Z,81.68
2018-02-10T02:49:16.948Z,81.30
2018-02-10T02:50:16.862Z,81.30
2018-02-10T02:51:16.776Z,81.49
2018-02-10T02:52:16.690Z,81.49
2018-02-10T02:53:16.605Z,81.40
2018-02-10T02:54:16.528Z,81.87
2018-02-10T02:55:16.428Z,81.59
2018-02-10T02:56:16.345Z,81.87
2018-02-10T02:57:16.256Z,82.34
2018-02-10T02:58:16.173Z,82.53
2018-02-10T02:59:16.085Z,82.25
2018-02-10T03:00:16.005Z,82.15
2018-02-10T03:01:15.911Z,82.53
2018-02-10T03:02:15.824Z,81.96
2018-02-10T03:03:15.739Z,82.06
2018-02-10T03:04:15.653Z,81.96
2018-02-10T03:05:15.565Z,82.25
2018-02-10T03:06:15.481Z,82.06
2018-02-10T03:07:15.397Z,82.44
2018-02-10T03:08:15.308Z,82.44
2018-02-10T03:09:15.238Z,82.72
2018-02-10T03:10:15.135Z,82.82
2018-02-10T03:11:15.048Z,83.01
2018-02-10T03:12:14.974Z,82.82
2018-02-10T03:13:14.876Z,82.91
2018-02-10T03:14:14.793Z,82.72
2018-02-10T03:15:14.702Z,82.82
2018-02-10T03:16:14.615Z,82.63
2018-02-10T03:17:14.530Z,82.63
2018-02-10T03:18:14.445Z,82.72
2018-02-10T03:19:14.369Z,83.01
2018-02-10T03:20:14.273Z,83.01
2018-02-10T03:21:14.189Z,83.39
2018-02-10T03:22:14.098Z,83.01
2018-02-10T03:23:14.025Z,82.82
2018-02-10T03:24:13.925Z,82.91
2018-02-10T03:25:13.841Z,83.01
2018-02-10T03:26:13.756Z,82.53
2018-02-10T03:27:13.667Z,82.53
2018-02-10T03:28:13.583Z,81.96
2018-02-10T03:29:13.495Z,82.53
2018-02-10T03:30:13.411Z,82.91
2018-02-10T03:31:13.324Z,82.82
2018-02-10T03:32:13.237Z,82.82
2018-02-10T03:33:13.151Z,82.63
2018-02-10T03:34:13.064Z,82.72
2018-02-10T03:35:12.981Z,82.44
2018-02-10T03:36:12.906Z,82.25
2018-02-10T03:37:12.806Z,82.34
2018-02-10T03:38:12.720Z,82.34
2018-02-10T03:39:12.634Z,82.53
2018-02-10T03:40:12.549Z,82.72
2018-02-10T03:41:12.462Z,82.53
2018-02-10T03:42:12.376Z,83.39
2018-02-10T03:43:12.289Z,83.10
2018-02-10T03:44:12.204Z,83.48
2018-02-10T03:45:12.121Z,83.48
2018-02-10T03:46:12.030Z,83.67
2018-02-10T03:47:11.945Z,83.44
2018-02-10T03:48:11.859Z,83.76
2018-02-10T03:49:11.774Z,83.67
2018-02-10T03:50:11.686Z,83.86
2018-02-10T03:51:11.601Z,84.14
2018-02-10T03:52:11.512Z,83.67
2018-02-10T03:53:11.427Z,83.48
2018-02-10T03:54:11.341Z,83.48
2018-02-10T03:55:11.257Z,83.44
2018-02-10T03:56:11.167Z,83.44
2018-02-10T03:57:11.091Z,83.58
2018-02-10T03:58:10.995Z,83.25
2018-02-10T03:59:10.909Z,83.48
2018-02-10T04:00:10.826Z,83.72
2018-02-10T04:01:10.737Z,83.67
2018-02-10T04:02:10.653Z,83.63
2018-02-10T04:03:10.566Z,83.95
2018-02-10T04:05:53.064Z,83.58
2018-02-10T04:06:52.930Z,83.67
2018-02-10T04:08:45.706Z,84.05
2018-02-10T04:09:45.566Z,83.76
2018-02-10T04:11:49.353Z,83.72
2018-02-10T04:12:49.264Z,84.33
2018-02-10T04:14:53.096Z,84.14
2018-02-10T04:15:52.961Z,84.01
2018-02-10T04:17:56.797Z,84.05
2018-02-10T04:18:56.672Z,83.44
2018-02-10T04:21:00.455Z,83.72
2018-02-10T04:22:00.370Z,83.91
2018-02-10T04:24:04.203Z,83.82
2018-02-10T04:25:04.125Z,83.72
2018-02-10T04:27:07.959Z,83.63
2018-02-10T04:28:07.872Z,84.14
2018-02-10T04:30:11.701Z,83.91
2018-02-10T04:31:11.566Z,83.53
2018-02-10T04:33:15.399Z,84.05
2018-02-10T04:34:15.272Z,83.58
2018-02-10T04:36:19.067Z,84.14
2018-02-10T04:37:18.978Z,84.10
2018-02-10T04:39:22.805Z,83.82
2018-02-10T04:40:22.673Z,83.82
2018-02-10T04:42:26.464Z,84.39
2018-02-10T04:43:26.371Z,84.10
2018-02-10T04:45:30.204Z,84.20
2018-02-10T04:46:30.071Z,84.10
2018-02-10T04:48:22.804Z,84.20
2018-02-10T04:49:22.713Z,84.20
2018-02-10T04:51:26.550Z,84.48
2018-02-10T04:52:26.416Z,84.95
2018-02-10T04:54:30.249Z,84.77
2018-02-10T04:55:30.113Z,84.39
2018-02-10T04:57:33.905Z,83.91
2018-02-10T04:58:33.817Z,84.48
2018-02-10T05:00:37.653Z,84.48
2018-02-10T05:01:37.517Z,84.77
2018-02-10T05:03:41.305Z,85.24
2018-02-10T05:04:41.233Z,85.05
2018-02-10T05:06:45.137Z,84.86
2018-02-10T05:07:45.009Z,84.67
2018-02-10T05:09:48.844Z,84.77
2018-02-10T05:10:48.705Z,84.77
2018-02-10T05:12:52.491Z,84.95
2018-02-10T05:13:52.401Z,84.95
2018-02-10T05:15:56.230Z,84.86
2018-02-10T05:16:56.095Z,84.58
2018-02-10T05:18:48.838Z,84.48
2018-02-10T05:19:48.745Z,84.67
2018-02-10T05:21:52.574Z,84.67
2018-02-10T05:22:52.440Z,84.71
2018-02-10T05:24:56.286Z,84.29
2018-02-10T05:25:56.152Z,84.48
2018-02-10T05:27:59.935Z,84.29
2018-02-10T05:28:59.844Z,84.20
2018-02-10T05:31:03.689Z,84.48
2018-02-10T05:32:03.554Z,84.48
2018-02-10T05:34:07.338Z,84.67
2018-02-10T05:35:07.249Z,84.29
2018-02-10T05:37:11.084Z,84.86
2018-02-10T05:38:10.949Z,84.77
2018-02-10T05:40:14.784Z,85.05
2018-02-10T05:41:14.658Z,85.24
2018-02-10T05:43:18.449Z,84.77
2018-02-10T05:44:18.355Z,84.95
2018-02-10T05:46:22.188Z,84.67
2018-02-10T05:47:22.076Z,84.71
2018-02-10T05:49:25.937Z,85.28
2018-02-10T05:50:25.850Z,84.86
2018-02-10T05:52:29.677Z,85.09
2018-02-10T05:53:29.543Z,85.09
2018-02-10T05:55:33.393Z,84.90
2018-02-10T05:56:33.242Z,84.71
2018-02-10T05:58:25.974Z,85.00
2018-02-10T05:59:25.881Z,84.81
2018-02-10T06:01:29.715Z,84.33
2018-02-10T06:02:29.581Z,84.39
2018-02-10T06:04:33.383Z,84.81
2018-02-10T06:05:33.296Z,84.90
2018-02-10T06:07:37.123Z,84.52
2018-02-10T06:08:36.985Z,85.09
2018-02-10T06:10:40.826Z,84.71
2018-02-10T06:11:40.685Z,84.90
2018-02-10T06:13:44.479Z,84.71
2018-02-10T06:14:44.388Z,84.90
2018-02-10T06:16:48.217Z,84.71
2018-02-10T06:17:48.085Z,85.09
2018-02-10T06:19:51.870Z,84.86
2018-02-10T06:20:51.798Z,85.38
2018-02-10T06:22:55.621Z,85.42
2018-02-10T06:23:55.478Z,85.38
2018-02-10T06:25:59.273Z,85.66
2018-02-10T06:26:59.182Z,85.33
2018-02-10T06:28:51.958Z,85.33
2018-02-10T06:29:51.824Z,85.33
2018-02-10T06:31:55.753Z,85.28
2018-02-10T06:32:55.621Z,85.47
2018-02-10T06:34:59.309Z,86.04
2018-02-10T06:35:59.217Z,85.80
2018-02-10T06:38:03.050Z,86.13
2018-02-10T06:39:02.914Z,85.85
2018-02-10T06:41:06.702Z,85.94
2018-02-10T06:42:06.611Z,85.85
2018-02-10T06:44:10.440Z,85.66
2018-02-10T06:45:10.308Z,85.66
2018-02-10T06:47:14.137Z,85.47
2018-02-10T06:48:14.009Z,85.38
2018-02-10T06:50:17.793Z,86.13
2018-02-10T06:51:17.704Z,85.66
2018-02-10T06:53:21.536Z,85.75
2018-02-10T06:54:21.403Z,85.85
2018-02-10T06:56:25.191Z,85.66
2018-02-10T06:57:25.099Z,85.94
2018-02-10T06:59:28.947Z,86.04
2018-02-10T07:00:28.828Z,85.75
2018-02-10T07:02:32.733Z,85.66
2018-02-10T07:03:32.603Z,85.94
2018-02-10T07:05:36.488Z,86.04
2018-02-10T07:06:36.398Z,85.85
2018-02-10T07:08:29.074Z,86.13
2018-02-10T07:09:28.938Z,85.75
2018-02-10T07:11:32.730Z,85.47
2018-02-10T07:12:32.637Z,86.04
2018-02-10T07:14:36.470Z,86.04
2018-02-10T07:15:36.332Z,85.75
2018-02-10T07:17:40.118Z,85.66
2018-02-10T07:18:40.029Z,86.04
2018-02-10T07:20:43.858Z,85.94
2018-02-10T07:21:43.724Z,85.85
2018-02-10T07:23:47.553Z,85.94
2018-02-10T07:24:47.417Z,85.94
2018-02-10T07:26:51.208Z,85.75
2018-02-10T07:27:51.116Z,85.85
2018-02-10T07:29:55.043Z,86.22
2018-02-10T07:30:54.905Z,86.41
2018-02-10T07:32:58.691Z,86.22
2018-02-10T07:33:58.608Z,86.51
2018-02-10T07:36:02.443Z,86.51
2018-02-10T07:37:02.304Z,86.32
2018-02-10T07:38:55.085Z,86.32
2018-02-10T07:39:54.943Z,86.04
2018-02-10T07:41:58.738Z,86.13
2018-02-10T07:42:58.648Z,86.04
2018-02-10T07:45:02.478Z,86.13
2018-02-10T07:46:02.339Z,86.04
2018-02-10T07:48:06.129Z,86.32
2018-02-10T07:49:06.036Z,86.13
2018-02-10T07:51:09.881Z,86.04
2018-02-10T07:52:09.743Z,86.04
2018-02-10T07:54:13.579Z,86.04
2018-02-10T07:55:13.440Z,85.57
2018-02-10T07:57:17.247Z,86.22
2018-02-10T07:58:17.139Z,85.85
2018-02-10T08:00:20.971Z,86.04
2018-02-10T08:01:20.836Z,86.04
2018-02-10T08:03:24.623Z,85.75
2018-02-10T08:04:24.542Z,85.66
2018-02-10T08:06:29.375Z,86.04
2018-02-10T08:07:29.240Z,85.94
2018-02-10T08:09:33.028Z,85.94
2018-02-10T08:10:32.972Z,85.75
2018-02-10T08:12:36.780Z,86.04
2018-02-10T08:13:36.642Z,86.41
2018-02-10T08:15:40.475Z,86.04
2018-02-10T08:16:40.339Z,85.75
2018-02-10T08:18:33.067Z,86.70
2018-02-10T08:19:32.981Z,86.22
2018-02-10T08:21:36.817Z,86.22
2018-02-10T08:22:36.684Z,86.98
2018-02-10T08:24:40.469Z,86.98
2018-02-10T08:25:40.379Z,87.36
2018-02-10T08:27:44.212Z,86.98
2018-02-10T08:28:44.078Z,86.22
2018-02-10T08:30:47.949Z,86.70
2018-02-10T08:31:47.808Z,86.51
2018-02-10T08:33:51.597Z,86.41
2018-02-10T08:34:51.545Z,86.70
2018-02-10T08:36:55.345Z,86.98
2018-02-10T08:37:55.204Z,86.22
2018-02-10T08:39:58.999Z,86.41
2018-02-10T08:40:58.911Z,86.22
2018-02-10T08:43:02.742Z,86.89
2018-02-10T08:44:02.607Z,86.79
2018-02-10T08:46:06.442Z,86.51
2018-02-10T08:47:06.320Z,86.70
2018-02-10T08:48:59.044Z,86.60
2018-02-10T08:49:58.952Z,86.13
2018-02-10T08:52:02.795Z,85.85
2018-02-10T08:53:02.657Z,86.13
2018-02-10T08:55:06.541Z,86.04
2018-02-10T08:56:06.452Z,85.75
2018-02-10T08:58:10.309Z,86.41
2018-02-10T08:59:10.166Z,86.79
2018-02-10T09:01:14.046Z,87.17
2018-02-10T09:02:13.868Z,87.27
2018-02-10T09:04:17.651Z,86.60
2018-02-10T09:05:17.564Z,86.89
2018-02-10T09:07:21.395Z,86.98
2018-02-10T09:08:21.261Z,86.70
2018-02-10T09:10:25.049Z,86.60
2018-02-10T09:11:24.960Z,86.51
2018-02-10T09:13:28.796Z,87.08
2018-02-10T09:14:28.665Z,87.46
2018-02-10T09:16:32.532Z,87.36
2018-02-10T09:17:32.359Z,87.36
2018-02-10T09:19:36.161Z,86.70
2018-02-10T09:20:36.067Z,87.46
2018-02-10T09:22:39.904Z,86.89
2018-02-10T09:23:39.769Z,86.79
2018-02-10T09:25:43.566Z,87.17
2018-02-10T09:26:43.476Z,87.36
2018-02-10T09:28:36.266Z,87.27
2018-02-10T09:29:36.128Z,87.27
2018-02-10T09:31:39.921Z,86.98
2018-02-10T09:32:39.832Z,86.79
2018-02-10T09:34:43.661Z,87.55
2018-02-10T09:35:43.525Z,87.17
2018-02-10T09:37:47.388Z,86.79
2018-02-10T09:38:47.225Z,86.89
2018-02-10T09:40:51.016Z,87.46
2018-02-10T09:41:50.926Z,87.65
2018-02-10T09:43:54.758Z,87.27
2018-02-10T09:44:54.622Z,87.08
2018-02-10T09:46:58.431Z,86.89
2018-02-10T09:47:58.339Z,87.27
2018-02-10T09:50:02.181Z,87.74
2018-02-10T09:51:02.043Z,87.55
2018-02-10T09:53:05.887Z,87.84
2018-02-10T09:54:05.750Z,87.36
2018-02-10T09:56:09.553Z,87.74
2018-02-10T09:57:09.463Z,87.08
2018-02-10T09:59:02.261Z,87.46
2018-02-10T10:00:02.105Z,87.93
2018-02-10T10:02:05.921Z,87.46
2018-02-10T10:03:05.818Z,86.70
2018-02-10T10:05:09.672Z,87.27
2018-02-10T10:06:09.533Z,87.08
2018-02-10T10:08:13.398Z,87.08
2018-02-10T10:09:13.247Z,87.36
2018-02-10T10:11:17.034Z,86.51
2018-02-10T10:12:16.945Z,86.89
2018-02-10T10:14:20.795Z,86.89
2018-02-10T10:15:20.654Z,86.79
2018-02-10T10:17:24.456Z,86.51
2018-02-10T10:18:24.366Z,86.22
2018-02-10T10:20:28.215Z,86.51
2018-02-10T10:21:28.079Z,86.70
2018-02-10T10:23:31.890Z,86.60
2018-02-10T10:24:31.795Z,86.51
2018-02-10T10:26:35.646Z,87.08
2018-02-10T10:27:35.508Z,86.22
2018-02-10T10:29:39.360Z,86.51
2018-02-10T10:30:39.221Z,86.79
2018-02-10T10:32:43.017Z,86.41
2018-02-10T10:33:42.928Z,86.60
2018-02-10T10:35:46.762Z,86.98
2018-02-10T10:36:46.624Z,85.94
2018-02-10T10:37:46.543Z,86.79
2018-02-10T10:38:46.454Z,86.79
2018-02-10T10:39:46.369Z,86.22
2018-02-10T10:40:46.281Z,86.32
2018-02-10T10:41:46.196Z,86.89
2018-02-10T10:42:46.111Z,85.66
2018-02-10T10:43:46.031Z,86.51
2018-02-10T10:44:45.946Z,85.89
2018-02-10T10:45:45.862Z,85.99
2018-02-10T10:46:45.770Z,86.04
2018-02-10T10:47:45.683Z,85.66
2018-02-10T10:48:45.598Z,85.85
2018-02-10T10:49:45.513Z,86.04
2018-02-10T10:50:45.427Z,85.89
2018-02-10T10:51:45.343Z,86.18
2018-02-10T10:52:45.255Z,86.18
2018-02-10T10:53:45.172Z,85.99
2018-02-10T10:54:45.088Z,85.80
2018-02-10T10:55:44.999Z,85.99
2018-02-10T10:56:44.966Z,85.51
2018-02-10T10:57:44.829Z,86.18
2018-02-10T10:58:44.743Z,85.99
2018-02-10T10:59:44.658Z,85.70
2018-02-10T11:00:44.572Z,85.89
2018-02-10T11:01:44.487Z,85.80
2018-02-10T11:02:44.401Z,85.89
2018-02-10T11:03:44.316Z,86.08
2018-02-10T11:04:44.231Z,85.42
2018-02-10T11:05:44.147Z,85.51
2018-02-10T11:06:44.065Z,86.08
2018-02-10T11:07:43.974Z,85.89
2018-02-10T11:08:43.893Z,85.89
2018-02-10T11:09:43.812Z,85.89
2018-02-10T11:10:43.719Z,85.32
2018-02-10T11:11:43.635Z,85.23
2018-02-10T11:12:43.549Z,85.13
2018-02-10T11:13:43.468Z,85.51
2018-02-10T11:14:43.380Z,84.94
2018-02-10T11:15:43.295Z,84.85
2018-02-10T11:16:43.209Z,85.23
2018-02-10T11:17:43.126Z,85.23
2018-02-10T11:18:43.039Z,84.94
2018-02-10T11:19:42.955Z,85.04
2018-02-10T11:20:42.868Z,84.75
2018-02-10T11:21:42.783Z,84.61
2018-02-10T11:22:42.700Z,84.42
2018-02-10T11:23:42.616Z,84.13
2018-02-10T11:24:42.531Z,84.89
2018-02-10T11:25:42.448Z,84.42
2018-02-10T11:26:42.385Z,84.42
2018-02-10T11:27:42.274Z,83.71
2018-02-10T11:28:42.191Z,84.00
2018-02-10T11:29:42.109Z,84.09
2018-02-10T11:30:42.021Z,83.94
2018-02-10T11:31:41.937Z,83.90
2018-02-10T11:32:41.853Z,84.38
2018-02-10T11:33:41.767Z,83.90
2018-02-10T11:34:41.685Z,84.00
2018-02-10T11:35:41.604Z,84.56
2018-02-10T11:36:41.512Z,84.38
2018-02-10T11:37:41.428Z,84.38
2018-02-10T11:38:41.342Z,83.71
2018-02-10T11:39:41.258Z,83.52
2018-02-10T11:40:41.175Z,83.90
2018-02-10T11:41:41.088Z,84.28
2018-02-10T11:42:41.007Z,84.38
2018-02-10T11:43:40.920Z,84.38
2018-02-10T11:44:40.836Z,84.66
2018-02-10T11:45:40.750Z,84.00
2018-02-10T11:46:40.665Z,84.56
2018-02-10T11:47:40.578Z,84.94
2018-02-10T11:48:40.497Z,85.04
2018-02-10T11:49:40.412Z,85.04
2018-02-10T11:50:40.328Z,84.75
2018-02-10T11:51:40.277Z,84.66
2018-02-10T11:52:40.157Z,84.94
2018-02-10T11:53:40.071Z,84.28
2018-02-10T11:54:39.987Z,84.38
2018-02-10T11:55:39.924Z,84.00
2018-02-10T11:56:39.818Z,83.71
2018-02-10T11:57:39.731Z,83.81
2018-02-10T11:58:39.648Z,84.23
2018-02-10T11:59:39.561Z,84.42
2018-02-10T12:00:39.478Z,84.51
2018-02-10T12:01:39.393Z,84.32
2018-02-10T12:02:39.344Z,84.19
2018-02-10T12:03:39.224Z,84.51
2018-02-10T12:04:39.138Z,84.23
2018-02-10T12:05:39.054Z,83.94
2018-02-10T12:06:38.970Z,84.23
2018-02-10T12:07:38.886Z,84.32
2018-02-10T12:08:38.799Z,84.23
2018-02-10T12:09:38.715Z,84.42
2018-02-10T12:10:38.632Z,83.75
2018-02-10T12:11:38.547Z,84.04
2018-02-10T12:12:38.461Z,83.85
2018-02-10T12:13:38.375Z,83.94
2018-02-10T12:14:38.295Z,83.85
2018-02-10T12:15:38.207Z,83.66
2018-02-10T12:16:38.124Z,84.23
2018-02-10T12:17:38.037Z,84.04
2018-02-10T12:18:37.954Z,83.47
2018-02-10T12:19:37.868Z,83.94
2018-02-10T12:20:37.786Z,84.13
2018-02-10T12:21:37.699Z,83.85
2018-02-10T12:22:37.615Z,84.04
2018-02-10T12:23:37.531Z,83.94
2018-02-10T12:24:37.446Z,84.42
2018-02-10T12:25:37.361Z,83.75
2018-02-10T12:26:37.278Z,84.04
2018-02-10T12:27:37.194Z,83.75
2018-02-10T12:28:37.111Z,83.85
2018-02-10T12:29:37.024Z,83.75
2018-02-10T12:30:36.940Z,83.37
2018-02-10T12:31:36.873Z,83.56
2018-02-10T12:32:36.773Z,83.37
2018-02-10T12:33:36.686Z,83.56
2018-02-10T12:34:36.606Z,83.75
2018-02-10T12:35:36.516Z,84.04
2018-02-10T12:36:36.436Z,84.13
2018-02-10T12:37:36.348Z,83.85
2018-02-10T12:38:36.263Z,82.90
2018-02-10T12:39:36.182Z,83.66
2018-02-10T12:40:36.100Z,83.56
2018-02-10T12:41:36.008Z,83.66
2018-02-10T12:42:35.924Z,83.66
2018-02-10T12:43:35.840Z,83.56
2018-02-10T12:44:35.776Z,83.85
2018-02-10T12:45:35.670Z,83.37
2018-02-10T12:46:35.595Z,83.56
2018-02-10T12:47:35.503Z,83.47
2018-02-10T12:48:35.426Z,84.13
2018-02-10T12:49:35.331Z,83.85
2018-02-10T12:50:35.250Z,83.94
2018-02-10T12:51:35.162Z,84.13
2018-02-10T12:52:35.077Z,83.94
2018-02-10T12:53:34.996Z,83.75
2018-02-10T12:54:34.908Z,83.85
2018-02-10T12:55:34.829Z,84.13
2018-02-10T12:56:34.740Z,84.23
2018-02-10T12:57:34.654Z,83.94
2018-02-10T12:58:34.582Z,83.47
2018-02-10T12:59:34.489Z,84.51
2018-02-10T13:00:34.402Z,84.32
2018-02-10T13:01:34.314Z,83.85
2018-02-10T13:02:34.232Z,84.42
2018-02-10T13:03:34.147Z,83.94
2018-02-10T13:04:34.065Z,83.85
2018-02-10T13:05:33.978Z,84.04
2018-02-10T13:06:33.893Z,84.23
2018-02-10T13:07:33.808Z,83.85
2018-02-10T13:08:33.725Z,83.94
2018-02-10T13:09:33.641Z,84.85
2018-02-10T13:10:33.553Z,84.61
2018-02-10T13:11:33.470Z,84.00
2018-02-10T13:12:33.396Z,84.38
2018-02-10T13:13:33.298Z,84.61
2018-02-10T13:14:33.214Z,84.56
2018-02-10T13:15:33.129Z,84.89
2018-02-10T13:16:33.048Z,85.17
2018-02-10T13:17:32.963Z,85.27
2018-02-10T13:18:32.878Z,84.99
2018-02-10T13:19:32.788Z,84.80
2018-02-10T13:20:32.722Z,84.42
2018-02-10T13:21:32.619Z,84.70
2018-02-10T13:22:32.537Z,83.94
2018-02-10T13:23:32.451Z,84.32
2018-02-10T13:24:32.364Z,84.32
2018-02-10T13:25:32.284Z,84.51
2018-02-10T13:26:32.194Z,84.61
2018-02-10T13:27:32.110Z,84.51
2018-02-10T13:28:32.071Z,84.80
2018-02-10T13:29:31.942Z,84.99
2018-02-10T13:30:31.859Z,85.36
2018-02-10T13:31:31.770Z,85.55
2018-02-10T13:32:31.686Z,85.55
2018-02-10T13:33:31.601Z,85.93
2018-02-10T13:34:31.516Z,85.93
2018-02-10T13:35:31.436Z,85.65
2018-02-10T13:36:31.346Z,85.17
2018-02-10T13:37:31.260Z,84.99
2018-02-10T13:38:31.175Z,85.27
2018-02-10T13:39:31.093Z,84.80
2018-02-10T13:40:31.007Z,85.36
2018-02-10T13:41:30.922Z,85.46
2018-02-10T13:42:30.836Z,85.55
2018-02-10T13:43:30.752Z,85.46
2018-02-10T13:44:30.666Z,85.55
2018-02-10T13:45:30.581Z,85.55
2018-02-10T13:46:30.497Z,85.46
2018-02-10T13:47:30.423Z,85.27
2018-02-10T13:48:30.327Z,85.46
2018-02-10T13:49:30.244Z,84.99
2018-02-10T13:50:30.159Z,85.36
2018-02-10T13:51:30.075Z,85.17
2018-02-10T13:52:29.987Z,85.46
2018-02-10T13:53:29.904Z,85.61
2018-02-10T13:54:29.823Z,85.89
2018-02-10T13:55:29.737Z,85.89
2018-02-10T13:56:29.652Z,85.89
2018-02-10T13:57:29.563Z,86.03
2018-02-10T13:58:29.478Z,85.99
2018-02-10T13:59:29.397Z,85.89
2018-02-10T14:00:29.309Z,85.84
2018-02-10T14:01:29.226Z,85.84
2018-02-10T14:02:29.137Z,85.99
2018-02-10T14:03:29.053Z,85.89
2018-02-10T14:04:28.970Z,85.89
2018-02-10T14:05:28.884Z,86.08
2018-02-10T14:06:28.800Z,86.08
2018-02-10T14:07:28.713Z,86.27
2018-02-10T14:08:28.627Z,86.27
2018-02-10T14:09:28.555Z,85.99
2018-02-10T14:10:28.459Z,85.80
2018-02-10T14:11:28.374Z,86.03
2018-02-10T14:12:28.287Z,86.12
2018-02-10T14:13:28.203Z,85.89
2018-02-10T14:14:28.118Z,85.84
2018-02-10T14:15:28.034Z,86.27
2018-02-10T14:16:27.951Z,86.08
2018-02-10T14:17:27.864Z,85.80
2018-02-10T14:18:27.779Z,86.27
2018-02-10T14:19:27.695Z,86.12
2018-02-10T14:20:27.606Z,86.22
2018-02-10T14:21:27.524Z,86.50
2018-02-10T14:22:27.438Z,86.12
2018-02-10T14:23:27.355Z,85.74
2018-02-10T14:24:27.268Z,85.84
2018-02-10T14:25:27.188Z,85.84
2018-02-10T14:26:27.102Z,86.12
2018-02-10T14:27:27.015Z,86.03
2018-02-10T14:28:26.927Z,86.03
2018-02-10T14:29:26.846Z,86.03
2018-02-10T14:30:26.759Z,86.03
2018-02-10T14:31:26.675Z,85.93
2018-02-10T14:32:26.591Z,85.93
2018-02-10T14:33:26.522Z,85.93
2018-02-10T14:34:26.417Z,85.93
2018-02-10T14:35:26.334Z,86.22
2018-02-10T14:36:26.257Z,85.93
2018-02-10T14:37:26.163Z,86.60
2018-02-10T14:38:26.079Z,85.70
2018-02-10T14:39:25.992Z,85.99
2018-02-10T14:40:25.911Z,86.27
2018-02-10T14:41:25.827Z,86.12
2018-02-10T14:42:25.741Z,86.08
2018-02-10T14:43:25.652Z,86.08
2018-02-10T14:44:25.568Z,86.08
2018-02-10T14:45:25.486Z,86.08
2018-02-10T14:46:32.338Z,86.46
2018-02-10T14:47:32.476Z,85.89
2018-02-10T14:49:29.151Z,86.36
2018-02-10T14:50:29.075Z,86.50
2018-02-10T14:52:32.811Z,86.60
2018-02-10T14:53:32.722Z,86.08
2018-02-10T14:55:36.564Z,85.93
2018-02-10T14:56:36.431Z,86.12
2018-02-10T14:57:36.346Z,85.93
2018-02-10T14:58:36.263Z,85.93
2018-02-10T14:59:36.181Z,85.93
2018-02-10T15:00:36.091Z,85.93
2018-02-10T15:01:36.008Z,85.70
2018-02-10T15:02:35.923Z,85.89
2018-02-10T15:03:35.839Z,85.89
2018-02-10T15:04:35.748Z,86.55
2018-02-10T15:05:35.665Z,86.27
2018-02-10T15:06:35.608Z,85.80
2018-02-10T15:07:35.495Z,86.55
2018-02-10T15:08:35.409Z,86.83
2018-02-10T15:09:35.326Z,86.55
2018-02-10T15:10:35.254Z,86.83